Arlington, Colorado
Current Conditions -  °F | °C
As of 4:53 PM on Thursday 18 Dec 2014 (Local Time) from KLHX Reporting Station
Clear Clear  
Wind Chill: 28°   Ceiling: Unl
Heat Index: 34°   Visibility: 10mi
Dew Point: 29°   Wind: 7mph
Humidity: 82%   Direction: 100°E
Pressure: 30.05"   Gusts: NA
Location:  38.34°N, 103.34°W
Report Text: KLHX 182353Z AUTO 10006KT 10SM CLR 01/M02 A3005 RMK AO2 SLP192 T00111017 10072 20011 51010
Loading
Personal Weather Stations






























Interactive Weather Map New forecast layout! Learn more

10-Day Weather Forecast

Advertisements
Track Severe Weather on mobile